createdAt,value
2022-12-11T00:00:45.790Z,89.85
2022-12-11T00:03:35.185Z,87.75
2022-12-11T00:06:07.629Z,65.40
2022-12-11T00:08:37.423Z,74.32
2022-12-11T00:11:10.289Z,80.30
2022-12-11T00:13:39.647Z,87.53
2022-12-11T00:16:09.214Z,72.65
2022-12-11T00:18:38.904Z,77.05
2022-12-11T00:21:12.097Z,87.22
2022-12-11T00:23:42.236Z,85.40
2022-12-11T00:26:15.516Z,86.70
2022-12-11T00:28:46.077Z,76.40
2022-12-11T00:31:17.284Z,89.60
2022-12-11T00:33:49.090Z,85.55
2022-12-11T00:36:20.449Z,86.97
2022-12-11T00:38:50.439Z,94.88
2022-12-11T00:41:21.484Z,101.55
2022-12-11T00:43:51.328Z,76.72
2022-12-11T00:46:20.622Z,89.70
2022-12-11T00:48:50.191Z,88.68
2022-12-11T00:51:19.826Z,87.00
2022-12-11T00:53:49.329Z,95.07
2022-12-11T00:56:23.086Z,100.05
2022-12-11T00:58:53.019Z,85.63
2022-12-11T01:01:24.109Z,97.68
2022-12-11T01:03:55.169Z,84.10
2022-12-11T01:06:26.283Z,99.93
2022-12-11T01:09:11.214Z,93.95
2022-12-11T01:11:43.220Z,97.20
2022-12-11T01:14:14.211Z,86.00
2022-12-11T01:16:43.410Z,89.65
2022-12-11T01:19:13.003Z,98.32
2022-12-11T01:21:42.308Z,95.07
2022-12-11T01:24:11.718Z,91.28
2022-12-11T01:26:42.374Z,77.72
2022-12-11T01:29:12.248Z,98.45
2022-12-11T01:31:41.343Z,81.13
2022-12-11T01:34:10.651Z,92.70
2022-12-11T01:36:39.822Z,89.07
2022-12-11T01:39:09.307Z,85.43
2022-12-11T01:41:38.656Z,95.88
2022-12-11T01:44:25.185Z,89.53
2022-12-11T01:49:27.327Z,79.10
2022-12-11T01:52:02.025Z,82.05
2022-12-11T01:54:32.672Z,79.30
2022-12-11T01:57:05.391Z,93.32
2022-12-11T01:59:39.218Z,83.38
2022-12-11T02:02:13.362Z,90.63
2022-12-11T02:04:45.647Z,85.68
2022-12-11T02:07:15.068Z,83.30
2022-12-11T02:09:47.412Z,76.68
2022-12-11T02:12:25.961Z,83.57
2022-12-11T02:15:07.604Z,80.03
2022-12-11T02:17:42.814Z,78.68
2022-12-11T02:20:18.911Z,82.47
2022-12-11T02:23:10.476Z,91.07
2022-12-11T02:25:49.594Z,93.28
2022-12-11T02:28:26.499Z,94.90
2022-12-11T02:31:02.208Z,91.70
2022-12-11T02:33:38.835Z,87.40
2022-12-11T02:36:10.644Z,108.90
2022-12-11T02:38:43.368Z,96.55
2022-12-11T02:41:13.811Z,100.47
2022-12-11T02:43:45.734Z,92.00
2022-12-11T02:46:16.515Z,93.95
2022-12-11T02:48:47.696Z,85.88
2022-12-11T02:51:19.808Z,97.30
2022-12-11T02:53:50.701Z,91.85
2022-12-11T02:56:25.460Z,93.93
2022-12-11T02:59:00.839Z,81.32
2022-12-11T03:04:00.205Z,79.28
2022-12-11T03:06:36.203Z,86.75
2022-12-11T03:09:06.159Z,86.32
2022-12-11T03:11:35.435Z,101.43
2022-12-11T03:14:06.430Z,89.93
2022-12-11T03:16:38.593Z,77.90
2022-12-11T03:19:18.449Z,80.90
2022-12-11T03:21:54.508Z,93.00
2022-12-11T03:27:01.132Z,81.35
2022-12-11T03:29:37.728Z,86.97
2022-12-11T03:36:34.796Z,85.38
2022-12-11T03:39:08.088Z,83.13
2022-12-11T03:41:40.975Z,81.25
2022-12-11T03:44:10.936Z,88.78
2022-12-11T03:46:45.727Z,91.68
2022-12-11T03:49:18.538Z,82.78
2022-12-11T03:51:51.818Z,80.68
2022-12-11T03:54:21.546Z,73.40
2022-12-11T03:56:52.774Z,85.72
2022-12-11T03:59:21.856Z,83.40
2022-12-11T04:01:52.769Z,80.68
2022-12-11T04:04:22.034Z,75.22
2022-12-11T04:06:51.510Z,73.85
2022-12-11T04:09:20.557Z,76.30
2022-12-11T04:11:49.885Z,77.43
2022-12-11T04:14:36.288Z,71.10
2022-12-11T04:17:07.236Z,67.30
2022-12-11T04:19:53.899Z,70.88
2022-12-11T04:22:40.766Z,70.85
2022-12-11T04:25:10.619Z,67.40
2022-12-11T04:27:56.771Z,71.75
2022-12-11T04:30:33.800Z,72.22
2022-12-11T04:33:06.006Z,65.20
2022-12-11T04:35:35.353Z,75.60
2022-12-11T04:38:04.719Z,77.00
2022-12-11T04:40:33.811Z,75.38
2022-12-11T04:43:03.229Z,70.32
2022-12-11T04:45:32.318Z,74.90
2022-12-11T04:48:01.688Z,70.95
2022-12-11T04:50:32.243Z,64.65
2022-12-11T04:53:01.712Z,70.55
2022-12-11T04:55:30.835Z,76.22
2022-12-11T04:58:00.159Z,71.28
2022-12-11T05:00:29.213Z,80.85
2022-12-11T05:02:58.602Z,70.25
2022-12-11T05:05:27.723Z,77.15
2022-12-11T05:07:58.592Z,79.82
2022-12-11T05:10:27.623Z,71.13
2022-12-11T05:12:56.903Z,78.97
2022-12-11T05:15:25.996Z,86.10
2022-12-11T05:17:55.357Z,72.80
2022-12-11T05:20:24.744Z,69.53
2022-12-11T05:22:54.107Z,79.68
2022-12-11T05:25:24.515Z,74.57
2022-12-11T05:27:53.982Z,80.35
2022-12-11T05:30:23.214Z,75.22
2022-12-11T05:32:52.585Z,74.60
2022-12-11T05:35:21.734Z,85.13
2022-12-11T05:37:51.092Z,82.45
2022-12-11T05:40:20.276Z,92.22
2022-12-11T05:42:51.879Z,84.03
2022-12-11T05:45:21.021Z,81.88
2022-12-11T05:47:50.671Z,87.63
2022-12-11T05:50:19.746Z,78.78
2022-12-11T05:52:49.295Z,80.05
2022-12-11T05:55:18.580Z,79.70
2022-12-11T05:57:47.884Z,72.10
2022-12-11T06:00:18.467Z,74.72
2022-12-11T06:02:47.907Z,67.15
2022-12-11T06:05:17.278Z,68.82
2022-12-11T06:07:46.691Z,70.30
2022-12-11T06:10:15.765Z,70.28
2022-12-11T06:12:45.160Z,74.10
2022-12-11T06:15:14.209Z,68.80
2022-12-11T06:17:44.917Z,70.75
2022-12-11T06:20:14.118Z,77.20
2022-12-11T06:22:43.695Z,84.55
2022-12-11T06:25:13.354Z,83.43
2022-12-11T06:27:43.020Z,69.55
2022-12-11T06:30:13.077Z,66.25
2022-12-11T06:32:44.021Z,64.05
2022-12-11T06:35:13.830Z,62.78
2022-12-11T06:37:43.395Z,61.17
2022-12-11T06:40:13.705Z,62.55
2022-12-11T06:42:43.161Z,60.45
2022-12-11T06:45:13.008Z,63.63
2022-12-11T06:47:43.893Z,65.45
2022-12-11T06:50:13.059Z,65.15
2022-12-11T06:52:42.577Z,64.50
2022-12-11T06:55:12.101Z,55.10
2022-12-11T06:57:41.583Z,67.28
2022-12-11T07:00:11.992Z,55.30
2022-12-11T07:02:41.664Z,62.08
2022-12-11T07:05:12.685Z,66.97
2022-12-11T07:07:42.659Z,63.88
2022-12-11T07:10:12.074Z,67.13
2022-12-11T07:12:41.678Z,70.00
2022-12-11T07:15:11.832Z,73.00
2022-12-11T07:17:41.407Z,82.63
2022-12-11T07:20:12.766Z,62.05
2022-12-11T07:22:46.444Z,61.63
2022-12-11T07:25:16.364Z,71.10
2022-12-11T07:27:45.740Z,59.40
2022-12-11T07:30:15.646Z,98.82
2022-12-11T07:32:45.157Z,74.55
2022-12-11T07:35:15.796Z,55.95
2022-12-11T07:37:45.983Z,66.95
2022-12-11T07:40:15.249Z,77.35
2022-12-11T07:42:46.434Z,67.97
2022-12-11T07:45:15.662Z,59.50
2022-12-11T07:47:44.908Z,62.50
2022-12-11T07:50:15.689Z,65.70
2022-12-11T07:52:45.121Z,62.92
2022-12-11T07:55:14.660Z,74.60
2022-12-11T07:57:44.098Z,70.43
2022-12-11T08:00:14.052Z,63.40
2022-12-11T08:02:43.861Z,62.65
2022-12-11T08:05:14.491Z,49.63
2022-12-11T08:07:44.027Z,53.45
2022-12-11T08:10:13.289Z,53.85
2022-12-11T08:12:42.997Z,67.13
2022-12-11T08:15:13.036Z,60.65
2022-12-11T08:17:42.532Z,79.68
2022-12-11T08:20:12.327Z,74.00
2022-12-11T08:22:43.306Z,74.25
2022-12-11T08:25:12.765Z,91.60
2022-12-11T08:27:42.693Z,57.45
2022-12-11T08:30:12.789Z,62.10
2022-12-11T08:32:42.270Z,72.65
2022-12-11T08:35:11.717Z,70.72
2022-12-11T08:37:42.718Z,78.90
2022-12-11T08:40:14.287Z,52.35
2022-12-11T08:42:43.712Z,34.67
2022-12-11T08:45:13.335Z,42.70
2022-12-11T08:47:43.142Z,48.42
2022-12-11T08:50:12.472Z,26.50
2022-12-11T08:52:43.245Z,24.83
2022-12-11T08:55:13.125Z,22.70
2022-12-11T08:57:43.196Z,19.85
2022-12-11T09:00:15.362Z,21.70
2022-12-11T09:02:45.037Z,27.17
2022-12-11T09:05:14.305Z,20.65
2022-12-11T09:07:45.722Z,25.05
2022-12-11T09:10:14.750Z,21.67
2022-12-11T09:12:44.195Z,24.55
2022-12-11T09:15:13.846Z,19.63
2022-12-11T09:17:43.346Z,24.98
2022-12-11T09:20:13.143Z,40.63
2022-12-11T09:22:43.121Z,35.85
2022-12-11T09:25:13.877Z,33.38
2022-12-11T09:27:43.532Z,24.70
2022-12-11T09:30:13.238Z,24.38
2022-12-11T09:32:42.519Z,23.08
2022-12-11T09:35:12.487Z,20.42
2022-12-11T09:37:42.285Z,22.05
2022-12-11T09:40:14.907Z,17.23
2022-12-11T09:42:54.353Z,18.20
2022-12-11T09:45:23.719Z,20.60
2022-12-11T09:47:56.510Z,19.15
2022-12-11T09:50:28.198Z,22.10
2022-12-11T09:53:08.955Z,20.77
2022-12-11T09:55:49.149Z,18.92
2022-12-11T09:58:29.068Z,22.20
2022-12-11T10:01:04.798Z,20.25
2022-12-11T10:03:58.524Z,15.20
2022-12-11T10:06:34.365Z,17.17
2022-12-11T10:09:13.366Z,18.25
2022-12-11T10:11:57.572Z,37.13
2022-12-11T10:14:37.656Z,37.28
2022-12-11T10:17:13.580Z,36.08
2022-12-11T10:19:44.148Z,30.33
2022-12-11T10:22:20.214Z,27.17
2022-12-11T10:25:12.807Z,29.63
2022-12-11T10:27:44.859Z,39.05
2022-12-11T10:30:18.730Z,39.90
2022-12-11T10:32:54.177Z,82.97
2022-12-11T10:35:34.819Z,47.22
2022-12-11T10:38:16.212Z,33.58
2022-12-11T10:40:47.784Z,25.52
2022-12-11T10:43:18.628Z,26.05
2022-12-11T10:45:55.543Z,34.65
2022-12-11T10:48:25.723Z,30.00
2022-12-11T10:51:01.192Z,37.50
2022-12-11T10:53:30.659Z,30.58
2022-12-11T10:56:00.980Z,24.05
2022-12-11T10:58:34.373Z,12.75
2022-12-11T11:01:10.963Z,11.85
2022-12-11T11:03:54.726Z,15.20
2022-12-11T11:06:25.850Z,53.17
2022-12-11T11:08:58.281Z,55.88
2022-12-11T11:11:33.881Z,23.95
2022-12-11T11:14:16.873Z,13.73
2022-12-11T11:16:48.764Z,17.70
2022-12-11T11:19:25.571Z,16.48
2022-12-11T11:21:57.667Z,24.60
2022-12-11T11:24:31.076Z,12.85
2022-12-11T11:27:15.969Z,15.95
2022-12-11T11:29:51.678Z,13.13
2022-12-11T11:32:24.888Z,19.40
2022-12-11T11:34:54.038Z,20.58
2022-12-11T11:37:28.534Z,10.45
2022-12-11T11:40:04.391Z,14.73
2022-12-11T11:42:44.197Z,14.02
2022-12-11T11:45:19.240Z,18.80
2022-12-11T11:47:59.717Z,17.13
2022-12-11T11:50:34.873Z,12.45
2022-12-11T11:53:11.613Z,11.70
2022-12-11T11:55:47.911Z,10.68
2022-12-11T11:58:22.975Z,11.20
2022-12-11T12:00:55.818Z,8.20
2022-12-11T12:03:26.767Z,10.43
2022-12-11T12:06:00.953Z,13.38
2022-12-11T12:08:45.544Z,15.52
2022-12-11T12:11:26.049Z,11.35
2022-12-11T12:14:22.766Z,13.98
2022-12-11T12:17:07.675Z,23.33
2022-12-11T12:19:49.175Z,12.25
2022-12-11T12:22:32.617Z,11.52
2022-12-11T12:25:12.141Z,11.02
2022-12-11T12:27:52.590Z,9.52
2022-12-11T12:30:24.075Z,9.05
2022-12-11T12:33:16.456Z,9.63
2022-12-11T12:35:55.194Z,12.95
2022-12-11T12:38:34.340Z,22.38
2022-12-11T12:41:15.985Z,25.92
2022-12-11T12:44:11.253Z,22.17
2022-12-11T12:46:54.349Z,16.58
2022-12-11T12:49:36.912Z,8.60
2022-12-11T12:52:08.455Z,6.40
2022-12-11T12:54:38.736Z,8.27
2022-12-11T12:57:08.551Z,6.65
2022-12-11T12:59:37.599Z,8.32
2022-12-11T13:02:15.251Z,7.57
2022-12-11T13:04:56.929Z,4.47
2022-12-11T13:07:30.786Z,14.73
2022-12-11T13:10:08.649Z,6.55
2022-12-11T13:12:46.682Z,4.60
2022-12-11T13:15:36.007Z,6.20
2022-12-11T13:18:27.213Z,7.43
2022-12-11T13:20:57.714Z,13.10
2022-12-11T13:23:31.147Z,8.05
2022-12-11T13:26:02.105Z,17.50
2022-12-11T13:28:34.983Z,18.90
2022-12-11T13:31:28.391Z,27.70
2022-12-11T13:33:59.624Z,42.38
2022-12-11T13:36:36.235Z,18.02
2022-12-11T13:39:10.975Z,43.97
2022-12-11T13:41:41.449Z,20.48
2022-12-11T13:44:21.196Z,38.33
2022-12-11T13:46:53.264Z,30.40
2022-12-11T13:49:26.831Z,21.20
2022-12-11T13:52:01.991Z,30.05
2022-12-11T13:54:32.891Z,31.42
2022-12-11T13:57:05.223Z,28.50
2022-12-11T13:59:36.906Z,23.90
2022-12-11T14:02:15.382Z,26.60
2022-12-11T14:04:45.297Z,29.10
2022-12-11T14:07:21.511Z,25.15
2022-12-11T14:09:51.070Z,21.00
2022-12-11T14:12:22.944Z,19.92
2022-12-11T14:14:57.127Z,18.92
2022-12-11T14:17:29.157Z,11.07
2022-12-11T14:20:01.763Z,11.77
2022-12-11T14:22:32.735Z,9.00
2022-12-11T14:25:04.154Z,10.27
2022-12-11T14:27:33.260Z,8.30
2022-12-11T14:30:12.742Z,8.80
2022-12-11T14:32:46.149Z,7.65
2022-12-11T14:35:25.339Z,7.07
2022-12-11T14:37:57.403Z,10.60
2022-12-11T14:40:29.897Z,9.02
2022-12-11T14:43:03.231Z,15.30
2022-12-11T14:45:35.675Z,6.88
2022-12-11T14:48:12.006Z,24.25
2022-12-11T14:50:47.449Z,6.35
2022-12-11T14:53:23.060Z,8.77
2022-12-11T14:55:53.718Z,14.70
2022-12-11T14:58:26.595Z,8.40
2022-12-11T15:01:00.593Z,8.55
2022-12-11T15:03:34.418Z,8.98
2022-12-11T15:06:22.264Z,15.73
2022-12-11T15:08:53.375Z,9.23
2022-12-11T15:11:25.030Z,12.55
2022-12-11T15:13:56.866Z,18.73
2022-12-11T15:16:29.295Z,21.25
2022-12-11T15:18:59.007Z,18.08
2022-12-11T15:21:32.149Z,20.02
2022-12-11T15:24:05.024Z,10.75
2022-12-11T15:26:36.861Z,11.85
2022-12-11T15:29:08.243Z,29.00
2022-12-11T15:31:37.710Z,18.55
2022-12-11T15:34:23.020Z,13.45
2022-12-11T15:36:52.723Z,8.10
2022-12-11T15:39:23.836Z,9.45
2022-12-11T15:41:54.767Z,7.00
2022-12-11T15:44:25.026Z,12.57
2022-12-11T15:46:54.534Z,12.05
2022-12-11T15:49:24.754Z,8.75
2022-12-11T15:51:54.701Z,12.25
2022-12-11T15:54:25.302Z,13.07
2022-12-11T15:56:54.590Z,9.52
2022-12-11T15:59:23.945Z,12.23
2022-12-11T16:01:53.488Z,15.05
2022-12-11T16:04:22.619Z,20.08
2022-12-11T16:06:52.246Z,14.18
2022-12-11T16:09:21.304Z,10.20
2022-12-11T16:11:52.024Z,11.38
2022-12-11T16:14:21.217Z,13.85
2022-12-11T16:16:50.544Z,10.32
2022-12-11T16:19:19.890Z,14.75
2022-12-11T16:21:49.482Z,12.40
2022-12-11T16:24:19.049Z,8.57
2022-12-11T16:26:48.850Z,13.85
2022-12-11T16:29:19.682Z,11.35
2022-12-11T16:31:49.279Z,14.32
2022-12-11T16:34:18.778Z,12.98
2022-12-11T16:36:48.328Z,10.40
2022-12-11T16:39:17.512Z,7.53
2022-12-11T16:41:47.108Z,9.90
2022-12-11T16:44:20.022Z,10.55
2022-12-11T16:46:49.750Z,24.48
2022-12-11T16:49:19.427Z,18.40
2022-12-11T16:51:49.747Z,11.80
2022-12-11T16:54:19.445Z,15.82
2022-12-11T16:56:48.991Z,14.13
2022-12-11T16:59:19.742Z,10.07
2022-12-11T17:01:50.658Z,21.25
2022-12-11T17:04:20.044Z,13.63
2022-12-11T17:06:50.367Z,6.82
2022-12-11T17:09:19.546Z,12.35
2022-12-11T17:11:49.222Z,14.10
2022-12-11T17:14:20.435Z,8.05
2022-12-11T17:16:50.066Z,5.25
2022-12-11T17:19:19.828Z,4.78
2022-12-11T17:21:51.733Z,7.78
2022-12-11T17:24:21.417Z,6.95
2022-12-11T17:26:50.945Z,8.07
2022-12-11T17:29:22.245Z,8.40
2022-12-11T17:31:52.015Z,12.80
2022-12-11T17:34:21.126Z,7.45
2022-12-11T17:36:51.421Z,8.20
2022-12-11T17:39:20.431Z,7.45
2022-12-11T17:41:49.934Z,5.15
2022-12-11T17:44:20.536Z,8.90
2022-12-11T17:46:49.877Z,10.00
2022-12-11T17:49:19.311Z,8.20
2022-12-11T17:51:49.159Z,5.15
2022-12-11T17:54:18.372Z,7.88
2022-12-11T17:56:47.779Z,7.18
2022-12-11T17:59:17.430Z,6.97
2022-12-11T18:01:49.246Z,5.68
2022-12-11T18:04:18.399Z,7.70
2022-12-11T18:06:47.797Z,6.15
2022-12-11T18:09:16.916Z,8.07
2022-12-11T18:11:46.616Z,9.10
2022-12-11T18:14:17.592Z,7.32
2022-12-11T18:16:48.836Z,6.88
2022-12-11T18:19:19.497Z,9.65
2022-12-11T18:21:49.017Z,8.70
2022-12-11T18:24:18.174Z,8.27
2022-12-11T18:26:47.741Z,11.45
2022-12-11T18:29:16.917Z,9.40
2022-12-11T18:31:46.468Z,7.53
2022-12-11T18:34:17.251Z,4.95
2022-12-11T18:36:46.683Z,7.63
2022-12-11T18:39:16.006Z,3.58
2022-12-11T18:41:53.871Z,10.10
2022-12-11T18:44:33.258Z,8.55
2022-12-11T18:47:02.713Z,6.78
2022-12-11T18:49:33.278Z,7.55
2022-12-11T18:52:03.456Z,10.60
2022-12-11T18:54:32.694Z,11.18
2022-12-11T18:57:02.436Z,18.48
2022-12-11T18:59:31.768Z,15.77
2022-12-11T19:02:01.766Z,17.17
2022-12-11T19:04:32.337Z,19.13
2022-12-11T19:07:02.306Z,9.15
2022-12-11T19:09:35.410Z,33.70
2022-12-11T19:12:07.959Z,31.75
2022-12-11T19:14:37.211Z,34.20
2022-12-11T19:17:06.674Z,66.13
2022-12-11T19:19:37.157Z,31.08
2022-12-11T19:22:10.564Z,20.98
2022-12-11T19:24:40.021Z,18.45
2022-12-11T19:27:13.528Z,15.40
2022-12-11T19:29:43.109Z,14.38
2022-12-11T19:32:12.470Z,16.20
2022-12-11T19:34:43.068Z,9.73
2022-12-11T19:37:14.066Z,13.57
2022-12-11T19:39:43.218Z,14.27
2022-12-11T19:42:14.777Z,9.20
2022-12-11T19:44:44.235Z,12.18
2022-12-11T19:47:14.099Z,10.40
2022-12-11T19:49:44.603Z,8.23
2022-12-11T19:52:14.436Z,4.47
2022-12-11T19:54:43.488Z,11.80
2022-12-11T19:57:12.959Z,6.22
2022-12-11T19:59:42.040Z,7.75
2022-12-11T20:02:12.359Z,4.35
2022-12-11T20:04:44.255Z,9.18
2022-12-11T20:07:13.809Z,7.32
2022-12-11T20:09:43.000Z,14.82
2022-12-11T20:12:12.711Z,7.53
2022-12-11T20:14:42.327Z,11.52
2022-12-11T20:17:14.488Z,7.45
2022-12-11T20:19:45.407Z,2.85
2022-12-11T20:22:15.008Z,8.65
2022-12-11T20:24:45.025Z,2.00
2022-12-11T20:27:14.574Z,9.68
2022-12-11T20:29:43.836Z,7.47
2022-12-11T20:32:13.454Z,4.53
2022-12-11T20:34:43.962Z,10.20
2022-12-11T20:37:13.610Z,4.43
2022-12-11T20:39:42.824Z,5.05
2022-12-11T20:42:12.608Z,7.25
2022-12-11T20:44:47.276Z,10.52
2022-12-11T20:47:20.040Z,5.57
2022-12-11T20:49:51.392Z,6.82
2022-12-11T20:52:21.261Z,9.07
2022-12-11T20:54:50.337Z,8.50
2022-12-11T20:57:19.791Z,30.67
2022-12-11T20:59:49.651Z,11.32
2022-12-11T21:02:19.160Z,16.08
2022-12-11T21:04:50.655Z,7.97
2022-12-11T21:07:20.476Z,16.45
2022-12-11T21:09:49.610Z,10.13
2022-12-11T21:12:19.249Z,4.47
2022-12-11T21:14:48.326Z,6.00
2022-12-11T21:17:17.868Z,12.43
2022-12-11T21:19:47.140Z,10.18
2022-12-11T21:22:17.947Z,8.68
2022-12-11T21:24:47.297Z,9.05
2022-12-11T21:27:16.772Z,11.77
2022-12-11T21:29:45.779Z,7.05
2022-12-11T21:32:15.202Z,3.97
2022-12-11T21:34:44.308Z,4.25
2022-12-11T21:37:13.677Z,6.57
2022-12-11T21:39:44.094Z,7.75
2022-12-11T21:42:13.411Z,3.85
2022-12-11T21:47:32.224Z,6.35
2022-12-11T21:50:01.368Z,5.90
2022-12-11T21:52:31.141Z,9.82
2022-12-11T21:55:01.647Z,17.17
2022-12-11T21:57:30.980Z,8.00
2022-12-11T22:00:00.913Z,4.60
2022-12-11T22:02:30.428Z,4.78
2022-12-11T22:05:01.838Z,2.72
2022-12-11T22:07:31.212Z,9.35
2022-12-11T22:10:01.676Z,1.90
2022-12-11T22:12:31.234Z,2.67
2022-12-11T22:15:00.403Z,3.60
2022-12-11T22:17:29.846Z,2.70
2022-12-11T22:19:58.909Z,6.22
2022-12-11T22:22:28.196Z,3.35
2022-12-11T22:24:57.634Z,4.80
2022-12-11T22:27:28.480Z,3.63
2022-12-11T22:29:57.671Z,6.45
2022-12-11T22:32:27.547Z,4.68
2022-12-11T22:34:57.885Z,13.77
2022-12-11T22:37:27.688Z,5.07
2022-12-11T22:39:57.429Z,7.97
2022-12-11T22:42:28.353Z,7.57
2022-12-11T22:44:57.470Z,5.78
2022-12-11T22:47:27.356Z,8.55
2022-12-11T22:49:56.504Z,7.35
2022-12-11T22:52:25.917Z,6.65
2022-12-11T22:54:55.055Z,3.38
2022-12-11T22:57:24.467Z,4.43
2022-12-11T22:59:55.015Z,5.35
2022-12-11T23:02:24.743Z,4.28
2022-12-11T23:04:53.901Z,8.85
2022-12-11T23:07:23.526Z,19.63
2022-12-11T23:09:52.653Z,3.70
2022-12-11T23:12:23.612Z,11.43
2022-12-11T23:14:54.071Z,7.88
2022-12-11T23:17:23.463Z,9.68
2022-12-11T23:19:52.667Z,3.92
2022-12-11T23:22:22.034Z,7.32
2022-12-11T23:24:51.219Z,5.65
2022-12-11T23:27:20.633Z,4.95
2022-12-11T23:29:49.752Z,8.00
2022-12-11T23:32:20.565Z,2.85
2022-12-11T23:34:50.502Z,8.95
2022-12-11T23:37:19.781Z,7.35
2022-12-11T23:39:49.042Z,4.30
2022-12-11T23:42:18.393Z,5.50
2022-12-11T23:44:47.750Z,1.63
2022-12-11T23:47:17.296Z,4.03
2022-12-11T23:49:47.689Z,3.25
2022-12-11T23:52:17.017Z,3.05
2022-12-11T23:54:46.527Z,4.07
2022-12-11T23:57:16.030Z,3.63
2022-12-11T23:59:45.128Z,1.90
